Time;durP1;ratioP1;P1;durP2;ratioP2;P2;SDS_P1;SDS_P2;PMS_P1;PMS_P2;Temp;Humidity;BMP_temperature;BMP_pressure;BME280_temperature;BME280_humidity;BME280_pressure;Samples;Min_cycle;Max_cycle;Signal;HPM_P1;HPM_P2
2021/05/17 05:32:40;;;;;;;34.67;19.82;;;;;;;11.79;87.99;99280.51;1689987;80;956179;-62
2021/05/17 05:35:04;;;;;;;27.30;19.90;;;;;;;11.87;88.05;99284.23;1701574;82;25429;-63
2021/05/17 05:37:31;;;;;;;37.42;18.40;;;;;;;11.93;87.76;99281.52;1710942;81;25687;-63
2021/05/17 05:39:57;;;;;;;26.17;19.73;;;;;;;11.94;86.93;99283.11;1702180;83;25635;-63
2021/05/17 05:42:26;;;;;;;33.13;19.00;;;;;;;11.98;87.00;99289.41;1705124;83;27511;-63
2021/05/17 05:44:52;;;;;;;30.17;20.88;;;;;;;11.96;86.36;99282.97;1694184;83;27315;-63
2021/05/17 05:47:19;;;;;;;30.82;21.33;;;;;;;11.98;86.84;99294.05;1697276;83;25667;-63
2021/05/17 05:49:49;;;;;;;32.98;21.33;;;;;;;12.09;87.71;99293.23;1706011;83;26098;-63
2021/05/17 05:52:16;;;;;;;;;;;;;;;12.17;87.50;99290.72;1702850;83;25634;-62
2021/05/17 05:54:44;;;;;;;28.75;20.40;;;;;;;12.30;88.23;99293.04;1692160;83;27502;-63
2021/05/17 05:57:14;;;;;;;28.77;21.23;;;;;;;12.35;87.33;99288.52;1688252;84;25730;-63
2021/05/17 05:59:40;;;;;;;32.03;21.60;;;;;;;12.40;86.62;99276.08;1685786;83;25469;-63
2021/05/17 06:02:06;;;;;;;30.08;20.72;;;;;;;12.47;87.16;99278.97;1688477;84;25626;-63
2021/05/17 06:04:33;;;;;;;29.35;21.87;;;;;;;12.49;86.21;99276.13;1693614;83;25476;-63
2021/05/17 06:06:59;;;;;;;29.95;23.30;;;;;;;12.55;86.43;99271.25;1692096;83;28335;-63
2021/05/17 06:09:26;;;;;;;30.32;21.73;;;;;;;12.64;86.65;99271.09;1698288;83;25774;-63
2021/05/17 06:11:55;;;;;;;27.62;21.45;;;;;;;12.77;86.85;99267.18;1706011;83;25825;-63
2021/05/17 06:14:24;;;;;;;31.33;21.63;;;;;;;12.82;86.21;99268.28;1698007;83;26177;-63
2021/05/17 06:16:51;;;;;;;27.17;20.08;;;;;;;12.89;86.10;99270.39;1690665;83;25831;-63
2021/05/17 06:19:19;;;;;;;27.70;21.90;;;;;;;13.01;85.75;99274.38;1707296;83;27491;-63
2021/05/17 06:21:46;;;;;;;29.80;22.15;;;;;;;13.08;85.86;99269.11;1703442;83;25388;-63
2021/05/17 06:24:18;;;;;;;29.87;21.37;;;;;;;13.14;85.24;99273.70;1699242;83;25741;-62
2021/05/17 06:26:44;;;;;;;28.80;20.75;;;;;;;13.24;85.79;99273.17;1704248;83;26318;-61
2021/05/17 06:29:12;;;;;;;27.95;20.97;;;;;;;13.24;84.13;99276.46;1706049;83;25612;-61
2021/05/17 06:31:46;;;;;;;30.25;21.50;;;;;;;13.26;84.68;99274.98;1707936;83;27461;-61
2021/05/17 06:34:14;;;;;;;28.45;19.57;;;;;;;13.37;84.59;99277.20;1709824;83;25828;-61
2021/05/17 06:36:41;;;;;;;26.37;21.42;;;;;;;13.52;85.03;99279.10;1691148;83;25703;-61
2021/05/17 06:39:09;;;;;;;25.95;20.88;;;;;;;13.60;84.96;99274.05;1715205;82;25700;-61
2021/05/17 06:41:38;;;;;;;28.90;20.25;;;;;;;13.80;86.08;99275.44;1700298;82;26397;-62
2021/05/17 06:44:07;;;;;;;26.62;20.15;;;;;;;13.95;84.48;99265.09;1689997;83;27679;-63
2021/05/17 06:46:33;;;;;;;27.73;20.57;;;;;;;14.30;86.37;99266.97;1677282;84;25796;-62
2021/05/17 06:49:01;;;;;;;23.10;19.02;;;;;;;14.60;86.24;99264.23;1700807;83;25791;-62
2021/05/17 06:51:28;;;;;;;26.82;19.27;;;;;;;14.75;84.73;99269.56;1700283;82;26781;-63
2021/05/17 06:53:58;;;;;;;24.52;19.92;;;;;;;14.82;83.56;99270.86;1707208;83;25511;-63
2021/05/17 06:56:42;;;;;;;27.45;19.92;;;;;;;14.83;82.33;99265.61;1678041;84;27487;-62
2021/05/17 06:59:13;;;;;;;26.15;19.02;;;;;;;14.77;81.80;99259.69;1690602;84;25763;-64
2021/05/17 07:01:40;;;;;;;23.85;19.32;;;;;;;14.86;82.28;99255.36;1696390;83;25778;-64
2021/05/17 07:04:10;;;;;;;23.25;18.37;;;;;;;14.89;81.83;99252.69;1689711;83;25736;-64
2021/05/17 07:06:40;;;;;;;24.47;19.17;;;;;;;15.13;82.16;99250.75;1707619;82;25484;-64
2021/05/17 07:12:14;;;;;;;21.00;16.67;;;;;;;16.00;80.98;99244.02;1699121;83;25710;-64
2021/05/17 07:14:25;;;;;;;22.37;16.45;;;;;;;16.25;80.23;99245.68;1698630;83;25411;-65
2021/05/17 07:16:52;;;;;;;19.25;16.12;;;;;;;16.53;80.28;99238.98;1709261;83;25708;-64
2021/05/17 07:19:18;;;;;;;19.27;16.75;;;;;;;16.76;79.89;99236.06;1684691;83;25624;-65
2021/05/17 07:24:31;;;;;;;17.85;14.80;;;;;;;17.44;79.22;99234.47;1685438;83;25854;-64
2021/05/17 07:26:58;;;;;;;15.63;13.48;;;;;;;18.00;81.32;99233.05;1701000;83;26148;-64
2021/05/17 07:29:25;;;;;;;16.87;14.03;;;;;;;18.50;79.55;99235.91;1658469;84;26581;-64
2021/05/17 07:31:52;;;;;;;20.17;13.95;;;;;;;18.97;79.39;99231.91;1682237;83;25654;-65
2021/05/17 07:34:19;;;;;;;14.40;12.65;;;;;;;19.38;78.02;99222.66;1681625;83;27542;-64
2021/05/17 07:36:47;;;;;;;14.58;12.95;;;;;;;19.68;75.96;99224.16;1692706;83;25839;-64
2021/05/17 07:39:15;;;;;;;13.98;12.47;;;;;;;19.95;74.43;99218.20;1691498;83;25653;-64
2021/05/17 07:41:42;;;;;;;12.63;10.48;;;;;;;20.11;72.01;99220.50;1688352;82;25721;-64
2021/05/17 07:44:10;;;;;;;12.85;11.55;;;;;;;20.22;71.27;99221.81;1686530;83;25856;-64
2021/05/17 07:46:36;;;;;;;16.35;11.53;;;;;;;20.43;71.47;99226.39;1696728;83;27561;-63
2021/05/17 07:49:12;;;;;;;12.58;10.43;;;;;;;20.77;71.39;99228.55;1659370;84;25505;-62
2021/05/17 07:51:42;;;;;;;15.98;10.55;;;;;;;21.03;70.28;99223.06;1694936;83;25475;-62
2021/05/17 07:54:11;;;;;;;16.27;9.80;;;;;;;21.23;68.74;99227.38;1664206;84;26358;-62
2021/05/17 07:56:38;;;;;;;12.03;8.80;;;;;;;21.33;65.82;99231.22;1632227;86;25844;-62
2021/05/17 07:59:05;;;;;;;10.40;8.35;;;;;;;21.38;66.69;99239.80;1646632;86;28244;-62
2021/05/17 08:01:32;;;;;;;10.35;8.73;;;;;;;21.49;66.01;99239.75;1696267;83;25777;-62
2021/05/17 08:03:59;;;;;;;10.30;8.43;;;;;;;21.68;65.03;99224.61;1665610;84;25721;-61
2021/05/17 08:06:26;;;;;;;13.00;8.20;;;;;;;21.91;65.38;99221.78;1667916;84;25588;-63
2021/05/17 08:08:54;;;;;;;8.00;6.80;;;;;;;22.24;64.10;99227.67;1689610;82;25735;-61
2021/05/17 08:11:21;;;;;;;13.70;8.18;;;;;;;22.43;63.23;99229.02;1696213;83;27505;-61
2021/05/17 08:13:48;;;;;;;7.22;6.22;;;;;;;22.49;60.43;99232.27;1700061;83;25995;-62
2021/05/17 08:16:16;;;;;;;7.75;6.35;;;;;;;22.56;60.59;99239.65;1693087;83;25711;-62
2021/05/17 08:18:43;;;;;;;8.10;6.33;;;;;;;22.56;60.33;99232.16;1695166;83;26200;-62
2021/05/17 08:21:10;;;;;;;8.43;6.65;;;;;;;23.03;61.55;99232.80;1701123;82;25655;-61
2021/05/17 08:23:38;;;;;;;7.80;6.87;;;;;;;23.35;60.12;99227.36;1662407;85;27748;-62
2021/05/17 08:26:08;;;;;;;7.83;6.83;;;;;;;23.48;58.78;99225.54;1697675;83;25673;-62
2021/05/17 08:28:36;;;;;;;9.38;6.92;;;;;;;23.83;58.86;99228.83;1697682;83;25827;-61
2021/05/17 08:31:04;;;;;;;7.72;6.62;;;;;;;24.05;56.35;99229.78;1675952;83;25738;-61
2021/05/17 08:33:32;;;;;;;8.63;6.55;;;;;;;24.07;56.67;99214.94;1669790;83;25794;-61
2021/05/17 08:36:00;;;;;;;6.25;5.65;;;;;;;24.35;55.00;99215.55;1695547;83;27500;-60
2021/05/17 08:38:26;;;;;;;9.93;5.87;;;;;;;24.42;56.04;99220.90;1694757;83;25990;-60
2021/05/17 08:40:53;;;;;;;8.68;6.15;;;;;;;24.86;54.74;99222.06;1691614;83;25719;-61
2021/05/17 08:43:19;;;;;;;5.92;5.12;;;;;;;25.00;52.82;99224.49;1697591;83;27620;-61
2021/05/17 08:45:46;;;;;;;6.28;5.65;;;;;;;25.20;53.88;99215.30;1685807;83;25872;-61
2021/05/17 08:48:13;;;;;;;7.17;5.28;;;;;;;25.63;53.33;99218.34;1688790;83;28160;-61
2021/05/17 08:50:40;;;;;;;6.85;5.80;;;;;;;25.75;50.66;99218.22;1691049;83;25759;-61
2021/05/17 08:53:10;;;;;;;7.25;5.40;;;;;;;25.65;50.97;99208.37;1697719;82;26321;-61
2021/05/17 08:55:38;;;;;;;6.47;5.58;;;;;;;25.50;50.58;99219.67;1670904;83;25733;-61
2021/05/17 08:58:05;;;;;;;14.25;5.97;;;;;;;25.71;50.46;99219.09;1667345;84;25673;-60
2021/05/17 09:00:32;;;;;;;6.10;4.95;;;;;;;25.35;48.33;99221.45;1674454;83;27565;-60
2021/05/17 09:02:59;;;;;;;5.55;4.65;;;;;;;24.57;47.74;99222.77;1687248;83;26488;-60
2021/05/17 09:05:32;;;;;;;6.70;5.40;;;;;;;24.01;48.48;99215.28;1698245;83;25495;-60
2021/05/17 09:08:04;;;;;;;5.15;4.67;;;;;;;23.58;49.46;99215.51;1669311;84;25904;-60
2021/05/17 09:10:38;;;;;;;5.20;4.70;;;;;;;23.73;49.33;99202.19;1659345;84;25443;-60
2021/05/17 09:13:11;;;;;;;4.60;4.20;;;;;;;23.88;49.25;99201.33;1675457;83;27514;-60
2021/05/17 09:15:48;;;;;;;4.85;4.40;;;;;;;24.32;51.07;99192.91;1657890;85;25671;-61
2021/05/17 09:18:22;;;;;;;6.72;4.28;;;;;;;24.44;48.31;99201.90;1682209;83;25781;-60
2021/05/17 09:20:52;;;;;;;4.47;3.98;;;;;;;23.94;48.43;99198.25;1666638;83;26383;-61
2021/05/17 09:23:28;;;;;;;5.33;4.12;;;;;;;24.25;48.44;99209.04;1642230;85;25732;-64
2021/05/17 09:26:10;;;;;;;5.60;3.75;;;;;;;24.20;48.34;99202.03;1672941;84;27683;-64
2021/05/17 09:28:46;;;;;;;3.72;3.40;;;;;;;24.67;47.98;99190.53;1675052;83;25642;-64
2021/05/17 09:31:16;;;;;;;3.70;3.40;;;;;;;25.33;48.07;99185.72;1685682;83;25731;-64
2021/05/17 09:33:55;;;;;;;5.15;4.10;;;;;;;25.67;46.18;99178.25;1703057;83;26060;-64
2021/05/17 09:36:37;;;;;;;;;;;;;;;26.02;44.45;99176.31;1696758;83;25676;-64
2021/05/17 09:39:12;;;;;;;5.25;4.10;;;;;;;26.41;44.91;99177.10;1668622;83;27612;-60
2021/05/17 09:41:49;;;;;;;4.05;3.67;;;;;;;26.81;44.76;99184.32;1681883;83;25708;-60
2021/05/17 09:44:24;;;;;;;6.40;4.37;;;;;;;27.39;44.19;99192.87;1690976;83;25869;-59
2021/05/17 09:47:08;;;;;;;5.20;4.62;;;;;;;27.61;43.14;99176.84;1679338;83;26333;-60
2021/05/17 09:49:51;;;;;;;5.37;4.42;;;;;;;27.36;42.07;99183.29;1690331;83;25501;-59
2021/05/17 09:52:24;;;;;;;4.62;4.08;;;;;;;26.74;41.86;99183.17;1683378;83;28069;-59
2021/05/17 09:55:05;;;;;;;6.67;4.20;;;;;;;26.96;43.59;99173.53;1684166;83;25907;-59
2021/05/17 09:57:42;;;;;;;6.22;4.17;;;;;;;27.35;42.73;99170.65;1662428;84;25558;-61
2021/05/17 10:00:24;;;;;;;5.62;3.08;;;;;;;27.69;42.35;99166.25;1666162;84;25674;-60
2021/05/17 10:02:53;;;;;;;3.80;2.90;;;;;;;28.12;40.59;99157.70;1673812;84;25722;-60
2021/05/17 10:05:35;;;;;;;4.20;2.98;;;;;;;27.97;38.26;99161.64;1693876;83;28049;-61
2021/05/17 10:08:05;;;;;;;3.47;3.12;;;;;;;27.64;38.93;99157.13;1692598;83;25692;-60
2021/05/17 10:10:33;;;;;;;3.92;3.35;;;;;;;26.76;38.03;99164.08;1691333;83;25964;-60
2021/05/17 10:13:03;;;;;;;4.40;3.50;;;;;;;26.25;39.49;99162.73;1696008;83;25729;-60
2021/05/17 10:15:33;;;;;;;3.62;3.30;;;;;;;26.54;40.65;99164.59;1691138;83;26889;-61
2021/05/17 10:17:59;;;;;;;3.75;3.42;;;;;;;27.28;41.22;99161.17;1656838;84;27587;-60
2021/05/17 10:20:28;;;;;;;6.05;3.22;;;;;;;27.30;38.95;99163.67;1695729;83;25733;-60
2021/05/17 10:22:57;;;;;;;3.40;3.00;;;;;;;26.76;38.74;99168.24;1682640;83;25885;-60
2021/05/17 10:25:27;;;;;;;5.67;3.22;;;;;;;26.39;38.48;99155.37;1680480;84;25732;-61
2021/05/17 10:28:02;;;;;;;5.37;4.37;;;;;;;25.87;38.48;99155.92;1687857;83;25727;-61
2021/05/17 10:30:32;;;;;;;4.03;2.90;;;;;;;25.65;39.67;99152.23;1689943;83;28083;-60
2021/05/17 10:33:01;;;;;;;4.53;3.20;;;;;;;25.54;39.86;99151.16;1681933;83;25898;-60
2021/05/17 10:35:34;;;;;;;;;;;;;;;25.43;39.84;99140.98;1692561;83;25841;-59
2021/05/17 10:41:23;;;;;;;5.22;3.70;;;;;;;25.00;39.78;99144.28;1694390;83;32962;-63
2021/05/17 10:44:11;;;;;;;3.98;3.10;;;;;;;24.80;40.02;99144.39;1693479;82;27852;-64
2021/05/17 10:46:47;;;;;;;7.72;3.83;;;;;;;24.65;40.40;99143.97;1669412;83;25482;-64
2021/05/17 10:49:32;;;;;;;3.58;3.12;;;;;;;24.52;40.41;99134.78;1671621;84;25788;-64
2021/05/17 10:52:10;;;;;;;4.03;3.62;;;;;;;25.11;41.42;99134.30;1655169;84;25678;-63
2021/05/17 10:54:46;;;;;;;4.50;3.87;;;;;;;25.95;41.34;99139.91;1677150;83;25891;-66
2021/05/17 10:57:40;;;;;;;4.37;3.98;;;;;;;26.68;40.29;99147.54;1688726;83;27437;-64
2021/05/17 11:02:46;;;;;;;5.92;4.28;;;;;;;27.50;37.19;99133.44;1693793;82;25950;-65
2021/05/17 11:05:23;;;;;;;4.78;3.35;;;;;;;27.49;36.40;99127.09;1696034;82;25863;-64
2021/05/17 11:08:02;;;;;;;3.62;3.25;;;;;;;27.59;36.30;99133.48;1683433;83;25577;-64
2021/05/17 11:10:47;;;;;;;5.72;4.42;;;;;;;27.48;35.89;99128.33;1661647;84;27435;-66
2021/05/17 11:13:23;;;;;;;5.78;4.10;;;;;;;27.20;36.67;99133.64;1680008;82;25942;-66
2021/05/17 11:16:08;;;;;;;5.22;4.35;;;;;;;26.73;36.14;99140.63;1687561;83;25712;-65
2021/05/17 11:18:43;;;;;;;3.65;3.35;;;;;;;26.17;36.06;99140.02;1690241;83;26125;-60
2021/05/17 11:21:27;;;;;;;4.83;3.80;;;;;;;26.33;36.52;99143.89;1692788;83;25880;-60
2021/05/17 11:24:03;;;;;;;5.22;3.90;;;;;;;26.66;36.55;99144.41;1694575;83;27513;-60
2021/05/17 11:26:33;;;;;;;4.20;3.12;;;;;;;27.28;37.08;99143.12;1690900;83;25643;-59
2021/05/17 11:29:04;;;;;;;3.98;3.65;;;;;;;27.91;35.42;99141.98;1673573;83;25823;-60
2021/05/17 11:31:40;;;;;;;6.10;3.50;;;;;;;28.19;35.41;99138.58;1690156;83;26371;-62
2021/05/17 11:34:20;;;;;;;4.17;3.80;;;;;;;28.44;33.91;99137.58;1698004;82;25930;-61
2021/05/17 11:37:10;;;;;;;4.85;4.00;;;;;;;28.49;33.86;99128.01;1693780;83;28549;-60
2021/05/17 11:39:39;;;;;;;7.45;3.98;;;;;;;28.93;34.49;99128.41;1660726;84;25831;-60
2021/05/17 11:42:11;;;;;;;7.58;4.17;;;;;;;29.61;32.93;99128.84;1690467;83;25733;-60
2021/05/17 11:47:29;;;;;;;5.30;4.17;;;;;;;29.72;32.80;99121.38;1691053;83;25699;-60
2021/05/17 11:49:57;;;;;;;4.28;3.87;;;;;;;29.78;31.50;99119.51;1667755;84;27498;-61
2021/05/17 11:52:34;;;;;;;4.80;3.52;;;;;;;29.38;31.64;99126.86;1670465;83;25980;-62
2021/05/17 11:55:05;;;;;;;5.15;3.77;;;;;;;29.36;31.92;99126.55;1675022;84;25764;-66
2021/05/17 11:57:38;;;;;;;5.80;3.98;;;;;;;29.19;31.57;99117.75;1679306;84;25717;-64
2021/05/17 12:00:10;;;;;;;4.22;3.83;;;;;;;28.97;30.69;99108.15;1659633;84;25840;-65
2021/05/17 12:02:53;;;;;;;4.08;3.77;;;;;;;28.47;30.86;99113.03;1686247;83;27483;-65
2021/05/17 12:05:24;;;;;;;5.15;3.17;;;;;;;28.27;31.76;99103.71;1686020;82;25976;-63
2021/05/17 12:07:53;;;;;;;4.50;3.12;;;;;;;28.63;32.19;99101.63;1666901;84;25501;-65
2021/05/17 12:10:22;;;;;;;3.62;3.22;;;;;;;29.00;31.46;99098.88;1685733;83;25644;-64
2021/05/17 12:12:52;;;;;;;3.55;3.25;;;;;;;29.14;31.04;99103.03;1691871;83;26481;-64
2021/05/17 12:15:20;;;;;;;4.10;3.37;;;;;;;28.92;30.84;99101.05;1700058;83;29719;-64
2021/05/17 12:17:47;;;;;;;3.30;2.87;;;;;;;29.18;31.17;99088.98;1695138;83;25567;-63
2021/05/17 12:20:17;;;;;;;3.35;3.05;;;;;;;29.50;30.38;99098.67;1699552;83;25910;-64
2021/05/17 12:22:49;;;;;;;4.22;3.05;;;;;;;29.13;27.48;99102.11;1688063;83;25773;-64
2021/05/17 12:25:22;;;;;;;6.00;3.02;;;;;;;28.09;28.48;99101.63;1696697;83;25842;-64
2021/05/17 12:27:51;;;;;;;4.22;2.77;;;;;;;27.26;29.45;99099.75;1680327;83;27934;-64
2021/05/17 12:30:24;;;;;;;4.72;3.25;;;;;;;26.65;29.47;99112.38;1694940;83;25825;-60
2021/05/17 12:32:55;;;;;;;3.42;3.00;;;;;;;26.25;30.77;99110.08;1682549;83;25626;-60
2021/05/17 12:35:37;;;;;;;3.17;2.87;;;;;;;26.01;31.23;99110.41;1691305;83;25909;-60
2021/05/17 12:38:19;;;;;;;4.00;2.98;;;;;;;25.69;31.49;99108.00;1701023;83;25717;-59
2021/05/17 12:40:50;;;;;;;3.42;3.05;;;;;;;25.35;31.93;99099.68;1693468;83;28675;-61
2021/05/17 12:43:26;;;;;;;4.45;3.08;;;;;;;25.14;32.26;99102.39;1687832;83;25650;-60
2021/05/17 12:46:00;;;;;;;6.62;3.20;;;;;;;24.95;32.78;99102.71;1683076;83;25578;-60
2021/05/17 12:48:39;;;;;;;5.42;3.20;;;;;;;24.86;32.96;99099.80;1662204;85;25581;-59
2021/05/17 12:51:19;;;;;;;4.92;3.08;;;;;;;24.75;33.48;99099.30;1689309;83;25773;-59
2021/05/17 12:53:49;;;;;;;5.00;2.95;;;;;;;24.74;33.33;99103.27;1682969;83;28180;-60
2021/05/17 12:56:31;;;;;;;3.58;3.27;;;;;;;24.85;33.69;99099.63;1694237;83;25701;-60
2021/05/17 12:59:06;;;;;;;4.58;3.65;;;;;;;24.86;33.83;99094.27;1668078;83;25717;-60
2021/05/17 13:01:34;;;;;;;7.00;4.55;;;;;;;24.89;33.51;99092.61;1627476;85;27668;-59
2021/05/17 13:04:00;;;;;;;4.53;3.20;;;;;;;24.91;34.17;99088.80;1636585;86;25479;-60
2021/05/17 13:06:29;;;;;;;4.05;3.25;;;;;;;24.93;33.40;99083.02;1621318;86;29683;-59
2021/05/17 13:09:05;;;;;;;5.17;3.47;;;;;;;24.81;33.33;99090.66;1677777;83;25824;-60
2021/05/17 13:11:39;;;;;;;4.42;3.15;;;;;;;24.49;32.25;99093.59;1682617;83;25590;-59
2021/05/17 13:14:20;;;;;;;3.15;2.47;;;;;;;23.99;33.43;99087.29;1662295;84;25769;-59
2021/05/17 13:16:57;;;;;;;4.72;3.12;;;;;;;23.70;33.24;99087.13;1666904;83;25819;-60
2021/05/17 13:22:45;;;;;;;5.30;3.65;;;;;;;23.37;34.21;99088.38;1689755;82;27527;-60
2021/05/17 13:31:02;;;;;;;3.77;3.25;;;;;;;23.29;35.15;99083.62;1692330;83;25733;-59
2021/05/17 13:33:37;;;;;;;4.28;3.05;;;;;;;23.30;35.30;99079.65;1701424;83;27496;-59
2021/05/17 13:36:19;;;;;;;3.33;2.90;;;;;;;23.26;35.04;99078.19;1688116;83;35206;-60
2021/05/17 13:38:49;;;;;;;3.85;3.45;;;;;;;23.23;35.46;99079.03;1691958;83;25864;-60
2021/05/17 13:41:19;;;;;;;3.50;3.12;;;;;;;23.21;35.66;99073.16;1691231;83;26278;-60
2021/05/17 13:43:46;;;;;;;4.60;3.27;;;;;;;23.17;35.61;99071.06;1688816;83;25893;-61
2021/05/17 13:46:15;;;;;;;7.55;2.83;;;;;;;23.10;35.91;99070.02;1686518;83;27519;-64
2021/05/17 13:48:51;;;;;;;3.05;2.65;;;;;;;23.22;35.85;99060.30;1674310;82;25705;-66
2021/05/17 13:51:26;;;;;;;4.17;2.60;;;;;;;23.39;35.77;99063.13;1687083;83;25603;-64
2021/05/17 13:53:57;;;;;;;3.20;2.80;;;;;;;23.49;35.37;99065.66;1684432;83;26420;-63
2021/05/17 13:56:25;;;;;;;3.40;2.85;;;;;;;23.48;34.62;99061.36;1664564;83;25777;-65
2021/05/17 13:58:52;;;;;;;5.42;3.12;;;;;;;23.41;35.08;99064.86;1685684;83;27563;-64
2021/05/17 14:01:20;;;;;;;3.55;2.98;;;;;;;23.45;35.20;99064.97;1688336;83;25879;-65
2021/05/17 14:03:47;;;;;;;6.33;3.27;;;;;;;23.43;34.99;99062.47;1683039;83;25715;-66
2021/05/17 14:06:13;;;;;;;4.85;2.92;;;;;;;23.38;34.97;99055.47;1698429;83;26153;-66
2021/05/17 14:08:41;;;;;;;3.02;2.83;;;;;;;23.46;35.30;99057.45;1697353;83;25811;-62
2021/05/17 14:11:12;;;;;;;3.52;3.08;;;;;;;23.56;35.25;99062.58;1686098;82;27511;-62
2021/05/17 14:13:38;;;;;;;3.47;2.70;;;;;;;23.60;34.96;99062.69;1680332;83;25791;-60
2021/05/17 14:16:05;;;;;;;4.35;2.80;;;;;;;23.61;34.70;99064.22;1676712;83;25890;-63
2021/05/17 14:18:32;;;;;;;7.42;2.98;;;;;;;23.64;34.79;99055.70;1680752;83;25808;-63
2021/05/17 14:20:58;;;;;;;3.37;3.08;;;;;;;23.71;35.05;99061.06;1666761;84;25755;-63
2021/05/17 14:23:25;;;;;;;3.60;2.83;;;;;;;23.83;35.09;99050.75;1684009;84;27569;-60
2021/05/17 14:25:51;;;;;;;6.33;3.15;;;;;;;23.98;35.22;99053.97;1682038;83;27411;-61
2021/05/17 14:28:18;;;;;;;4.90;3.10;;;;;;;24.10;34.93;99055.27;1678977;84;26088;-59
2021/05/17 14:30:45;;;;;;;4.90;3.12;;;;;;;24.16;34.86;99054.14;1683982;83;25752;-61
2021/05/17 14:33:11;;;;;;;3.98;3.10;;;;;;;24.23;34.92;99050.61;1668973;84;25815;-61
2021/05/17 14:35:39;;;;;;;4.20;3.12;;;;;;;24.27;35.13;99052.52;1663396;83;27655;-60
2021/05/17 14:38:06;;;;;;;4.15;2.70;;;;;;;24.48;34.83;99049.20;1677106;82;25766;-61
2021/05/17 14:40:34;;;;;;;4.55;3.08;;;;;;;24.72;34.67;99042.10;1674588;84;25793;-60
2021/05/17 14:43:01;;;;;;;3.35;2.80;;;;;;;24.87;34.27;99040.50;1678306;83;26539;-60
2021/05/17 14:45:29;;;;;;;4.95;2.87;;;;;;;24.92;33.79;99043.34;1684701;83;25654;-61
2021/05/17 14:47:57;;;;;;;3.22;2.90;;;;;;;24.88;33.32;99046.22;1663567;84;27483;-61
2021/05/17 14:50:25;;;;;;;5.17;3.10;;;;;;;24.70;33.22;99040.39;1676332;84;25816;-60
2021/05/17 14:52:51;;;;;;;4.72;3.02;;;;;;;24.48;33.27;99039.53;1675235;84;25749;-60
2021/05/17 14:55:18;;;;;;;3.45;2.92;;;;;;;24.27;33.30;99041.47;1683358;83;25756;-60
2021/05/17 14:57:44;;;;;;;5.42;4.40;;;;;;;23.99;33.34;99045.87;1689408;83;25903;-60
2021/05/17 15:00:18;;;;;;;6.42;3.47;;;;;;;23.81;33.75;99043.51;1699545;82;27570;-60
2021/05/17 15:02:46;;;;;;;4.10;3.33;;;;;;;23.69;34.03;99042.78;1690683;83;25707;-60
2021/05/17 15:05:15;;;;;;;4.80;3.12;;;;;;;23.57;34.18;99046.98;1660717;85;25827;-60
2021/05/17 15:07:44;;;;;;;3.67;3.37;;;;;;;23.47;34.67;99043.23;1663883;83;26090;-60
2021/05/17 15:10:12;;;;;;;4.12;3.10;;;;;;;23.37;34.69;99038.72;1634479;86;26261;-59
2021/05/17 15:12:39;;;;;;;5.45;3.27;;;;;;;23.24;34.71;99046.89;1673539;83;27718;-59
2021/05/17 15:15:07;;;;;;;3.42;3.12;;;;;;;23.08;34.71;99047.58;1679612;83;25898;-60
2021/05/17 15:17:34;;;;;;;4.75;3.27;;;;;;;22.99;35.16;99050.72;1692572;83;25806;-60
2021/05/17 15:20:00;;;;;;;6.37;3.75;;;;;;;22.87;35.23;99047.38;1698643;83;25753;-59
2021/05/17 15:22:28;;;;;;;5.65;3.47;;;;;;;22.72;35.11;99044.70;1696606;83;25883;-60
2021/05/17 15:24:55;;;;;;;4.37;2.77;;;;;;;22.60;35.46;99042.58;1698954;83;28329;-60
2021/05/17 15:27:21;;;;;;;4.30;2.65;;;;;;;22.47;35.76;99045.91;1669633;84;25736;-60
2021/05/17 15:29:48;;;;;;;6.85;3.30;;;;;;;22.42;35.62;99035.98;1683078;83;25853;-60
2021/05/17 15:32:14;;;;;;;5.40;3.65;;;;;;;22.35;36.43;99037.66;1691547;83;25871;-60
2021/05/17 15:34:41;;;;;;;5.67;3.47;;;;;;;22.28;37.02;99027.38;1679127;83;25736;-60
2021/05/17 15:37:07;;;;;;;4.25;3.20;;;;;;;22.23;37.12;99033.33;1690447;82;27519;-60
2021/05/17 15:39:34;;;;;;;3.45;3.08;;;;;;;22.18;37.15;99031.22;1688299;83;26034;-60
2021/05/17 15:42:00;;;;;;;4.45;3.52;;;;;;;22.11;37.64;99029.95;1697782;83;25850;-60
2021/05/17 15:44:27;;;;;;;5.08;4.10;;;;;;;22.03;38.34;99028.51;1695193;83;25735;-60
2021/05/17 15:46:53;;;;;;;7.28;4.00;;;;;;;21.94;38.59;99034.55;1687893;83;25659;-60
2021/05/17 15:49:20;;;;;;;4.15;3.37;;;;;;;21.85;38.70;99038.44;1695393;83;27549;-60
2021/05/17 15:51:48;;;;;;;5.30;3.30;;;;;;;21.75;38.85;99038.77;1669250;84;25678;-60
2021/05/17 15:54:15;;;;;;;5.67;4.00;;;;;;;21.63;39.51;99037.35;1684425;82;25770;-60
2021/05/17 15:56:42;;;;;;;5.28;3.80;;;;;;;21.53;39.89;99034.16;1690163;83;25552;-60
2021/05/17 15:59:09;;;;;;;4.45;3.65;;;;;;;21.40;39.64;99035.88;1691832;83;25846;-60
2021/05/17 16:01:39;;;;;;;6.33;3.92;;;;;;;21.32;39.74;99033.02;1693662;83;27551;-58
2021/05/17 16:04:06;;;;;;;8.30;4.22;;;;;;;21.22;39.88;99031.98;1688204;83;25802;-60
2021/05/17 16:06:33;;;;;;;4.75;3.72;;;;;;;21.11;40.36;99025.83;1694580;82;25873;-59
2021/05/17 16:08:59;;;;;;;4.28;3.37;;;;;;;21.03;40.68;99031.41;1689672;82;26205;-58
2021/05/17 16:11:29;;;;;;;4.50;3.65;;;;;;;21.00;41.08;99028.71;1701030;83;25398;-59
2021/05/17 16:13:59;;;;;;;10.20;3.52;;;;;;;20.97;41.19;99037.77;1693866;83;27421;-59
2021/05/17 16:16:42;;;;;;;5.47;3.60;;;;;;;20.92;41.43;99038.99;1700281;83;25754;-59
2021/05/17 16:21:39;;;;;;;5.72;3.50;;;;;;;20.87;41.95;99032.57;1687811;82;25698;-58
2021/05/17 16:24:07;;;;;;;6.15;3.37;;;;;;;20.85;42.17;99030.23;1687464;83;25821;-58
2021/05/17 16:26:33;;;;;;;3.85;3.47;;;;;;;20.85;42.52;99036.33;1689950;83;28183;-58
2021/05/17 16:29:00;;;;;;;4.50;3.35;;;;;;;20.82;43.00;99033.81;1692666;83;25813;-57
2021/05/17 16:31:30;;;;;;;7.53;4.20;;;;;;;20.77;42.84;99035.64;1690307;83;25547;-57
2021/05/17 16:34:07;;;;;;;9.68;3.67;;;;;;;20.72;43.03;99033.31;1700267;83;25799;-59
2021/05/17 16:36:38;;;;;;;7.17;2.90;;;;;;;20.63;42.93;99026.92;1671056;83;25492;-59
2021/05/17 16:39:07;;;;;;;3.40;3.08;;;;;;;20.53;42.68;99032.70;1705084;83;29610;-62
2021/05/17 16:41:37;;;;;;;6.37;3.43;;;;;;;20.44;42.85;99034.35;1693469;82;25695;-62
2021/05/17 16:44:07;;;;;;;6.03;3.55;;;;;;;20.36;43.07;99030.88;1665127;84;25702;-61
2021/05/17 16:46:35;;;;;;;4.78;3.50;;;;;;;20.28;43.29;99037.64;1676991;83;25781;-61
2021/05/17 16:49:04;;;;;;;6.47;3.17;;;;;;;20.19;43.51;99034.56;1700491;82;25814;-61
2021/05/17 16:51:38;;;;;;;4.67;3.33;;;;;;;20.15;43.98;99041.45;1692795;83;27518;-62
2021/05/17 16:54:07;;;;;;;8.63;5.03;;;;;;;20.12;44.53;99040.88;1696948;82;25723;-62
2021/05/17 16:56:38;;;;;;;5.75;4.87;;;;;;;20.08;45.43;99043.66;1697701;83;25763;-63
2021/05/17 16:59:06;;;;;;;8.00;6.45;;;;;;;20.09;45.98;99041.69;1698347;83;25806;-63
2021/05/17 17:01:38;;;;;;;9.60;7.85;;;;;;;20.08;46.09;99038.17;1684896;83;25488;-63
2021/05/17 17:04:08;;;;;;;5.60;4.00;;;;;;;20.07;46.22;99033.85;1696775;83;27464;-63
2021/05/17 17:06:35;;;;;;;;;;;;;;;20.04;45.38;99036.62;1695351;83;25850;-61
2021/05/17 17:09:09;;;;;;;5.10;3.87;;;;;;;20.02;45.23;99034.88;1679894;83;25692;-61
2021/05/17 17:11:40;;;;;;;7.65;4.10;;;;;;;20.01;44.83;99033.34;1700259;83;25831;-61
2021/05/17 17:14:09;;;;;;;5.53;3.85;;;;;;;20.00;45.11;99035.28;1668694;83;25477;-61
2021/05/17 17:16:41;;;;;;;9.30;4.62;;;;;;;20.00;45.38;99031.17;1694832;83;27601;-61
2021/05/17 17:19:08;;;;;;;6.85;5.72;;;;;;;19.95;46.01;99026.91;1697149;83;25780;-61
2021/05/17 17:21:35;;;;;;;6.90;4.72;;;;;;;19.88;46.62;99020.68;1699221;83;25957;-60
2021/05/17 17:24:03;;;;;;;9.00;4.17;;;;;;;19.78;46.19;99018.19;1685699;83;26388;-63
2021/05/17 17:26:30;;;;;;;8.30;4.20;;;;;;;19.69;46.34;99019.21;1692656;83;25672;-61
2021/05/17 17:28:58;;;;;;;5.87;4.20;;;;;;;19.62;46.54;99014.55;1659957;85;27717;-61
2021/05/17 17:31:26;;;;;;;8.83;4.60;;;;;;;19.55;46.63;99013.22;1696406;83;25812;-60
2021/05/17 17:33:53;;;;;;;6.78;4.08;;;;;;;19.49;46.58;99008.73;1691674;83;25870;-61
2021/05/17 17:36:20;;;;;;;6.25;4.33;;;;;;;19.44;46.63;99011.13;1653420;85;25772;-62
2021/05/17 17:38:46;;;;;;;6.42;3.92;;;;;;;19.38;47.01;99014.88;1633542;85;25867;-62
2021/05/17 17:41:13;;;;;;;4.70;3.77;;;;;;;19.31;46.57;99012.95;1698174;83;28495;-61
2021/05/17 17:43:39;;;;;;;7.22;3.70;;;;;;;19.22;46.39;99027.09;1698708;83;25749;-62